This is the latest recevied weather packets stored in our database for station/object EA1RCG-11. If no packets are shown the sender has not sent any weather packets the latest 10 day(s).
| Time | Temp. | Humidity | Pressure | Rain* | Wind** | Luminosity | Snow |
|---|---|---|---|---|---|---|---|
| 1777887274 | 19.44° C | 57% | 978.9 hPa | - | - | - | - |
| 1777885474 | 21.67° C | 53% | 978.9 hPa | - | - | - | - |
| 1777883674 | 17.22° C | 60% | 978.9 hPa | - | - | - | - |
| 1777881874 | 15.56° C | 62% | 978.8 hPa | - | - | - | - |
| 1777880074 | 15.56° C | 62% | 978.7 hPa | - | - | - | - |
| 1777878274 | 13.89° C | 65% | 978.6 hPa | - | - | - | - |
| 1777876473 | 13.89° C | 65% | 978.5 hPa | - | - | - | - |
| 1777874673 | 12.78° C | 67% | 978.3 hPa | - | - | - | - |
| 1777872873 | 11.67° C | 68% | 978.1 hPa | - | - | - | - |
| 1777871073 | 12.22° C | 68% | 977.9 hPa | - | - | - | - |
| 1777869273 | 12.22° C | 68% | 978 hPa | - | - | - | - |
| 1777867473 | 12.78° C | 67% | 978.1 hPa | - | - | - | - |
| 1777865673 | 13.33° C | 67% | 978.2 hPa | - | - | - | - |
| 1777863873 | 12.78° C | 67% | 978.1 hPa | - | - | - | - |
| 1777862073 | 13.33° C | 67% | 978.1 hPa | - | - | - | - |
| 1777860273 | 13.33° C | 67% | 978 hPa | - | - | - | - |
| 1777858472 | 13.33° C | 67% | 978.1 hPa | - | - | - | - |
| 1777856672 | 13.33° C | 67% | 978.2 hPa | - | - | - | - |
| 1777854872 | 13.33° C | 67% | 978.3 hPa | - | - | - | - |
| 1777853072 | 13.89° C | 66% | 978.5 hPa | - | - | - | - |
| 1777851272 | 13.33° C | 67% | 978.6 hPa | - | - | - | - |
| 1777849472 | 13.89° C | 66% | 978.6 hPa | - | - | - | - |
| 1777847672 | 13.89° C | 67% | 978.5 hPa | - | - | - | - |
| 1777845872 | 13.89° C | 66% | 978.7 hPa | - | - | - | - |
| 1777844072 | 13.89° C | 66% | 978.7 hPa | - | - | - | - |
* Rain since midnight (hover to see other rain measurements)
** Current wind speed in m/s (hover to see current wind gust speed)